sensor_id;sensor_type;location;lat;lon;timestamp;pressure;altitude;pressure_sealevel;temperature;humidity
84267;BME280;74414;51.098;13.716;2024-02-15T00:02:24;100279.56;;;8.07;85.20
84267;BME280;74414;51.098;13.716;2024-02-15T00:04:50;100286.44;;;8.01;85.34
84267;BME280;74414;51.098;13.716;2024-02-15T00:07:15;100278.84;;;7.98;85.76
84267;BME280;74414;51.098;13.716;2024-02-15T00:09:40;100286.88;;;7.91;85.77
84267;BME280;74414;51.098;13.716;2024-02-15T00:12:06;100286.78;;;7.88;86.05
84267;BME280;74414;51.098;13.716;2024-02-15T00:14:31;100283.09;;;7.84;86.03
84267;BME280;74414;51.098;13.716;2024-02-15T00:16:57;100278.75;;;7.83;86.26
84267;BME280;74414;51.098;13.716;2024-02-15T00:19:23;100274.38;;;7.94;86.40
84267;BME280;74414;51.098;13.716;2024-02-15T00:21:49;100276.56;;;8.00;86.78
84267;BME280;74414;51.098;13.716;2024-02-15T00:24:14;100279.91;;;8.06;86.64
84267;BME280;74414;51.098;13.716;2024-02-15T00:26:40;100281.03;;;8.05;86.52
84267;BME280;74414;51.098;13.716;2024-02-15T00:29:07;100279.56;;;8.07;86.19
84267;BME280;74414;51.098;13.716;2024-02-15T00:31:33;100273.34;;;8.10;85.89
84267;BME280;74414;51.098;13.716;2024-02-15T00:33:58;100281.63;;;8.10;85.63
84267;BME280;74414;51.098;13.716;2024-02-15T00:36:24;100270.38;;;8.15;85.47
84267;BME280;74414;51.098;13.716;2024-02-15T00:38:50;100276.22;;;8.14;85.66
84267;BME280;74414;51.098;13.716;2024-02-15T00:41:17;100271.16;;;8.16;85.91
84267;BME280;74414;51.098;13.716;2024-02-15T00:43:42;100276.13;;;8.22;85.62
84267;BME280;74414;51.098;13.716;2024-02-15T00:46:08;100269.91;;;8.25;85.29
84267;BME280;74414;51.098;13.716;2024-02-15T00:48:34;100268.09;;;8.30;84.74
84267;BME280;74414;51.098;13.716;2024-02-15T00:50:59;100274.78;;;8.29;84.59
84267;BME280;74414;51.098;13.716;2024-02-15T00:53:24;100266.66;;;8.23;84.72
84267;BME280;74414;51.098;13.716;2024-02-15T00:55:51;100264.72;;;8.24;84.84
84267;BME280;74414;51.098;13.716;2024-02-15T00:58:16;100260.94;;;8.16;84.95
84267;BME280;74414;51.098;13.716;2024-02-15T01:00:41;100274.97;;;8.11;85.10
84267;BME280;74414;51.098;13.716;2024-02-15T01:03:07;100281.28;;;8.12;85.25
84267;BME280;74414;51.098;13.716;2024-02-15T01:05:32;100270.22;;;8.12;85.19
84267;BME280;74414;51.098;13.716;2024-02-15T01:07:59;100268.63;;;8.11;85.01
84267;BME280;74414;51.098;13.716;2024-02-15T01:10:25;100271.28;;;8.07;85.08
84267;BME280;74414;51.098;13.716;2024-02-15T01:12:52;100273.34;;;8.10;85.02
84267;BME280;74414;51.098;13.716;2024-02-15T01:15:17;100273.22;;;8.07;85.17
84267;BME280;74414;51.098;13.716;2024-02-15T01:17:45;100272.06;;;8.08;85.13
84267;BME280;74414;51.098;13.716;2024-02-15T01:20:11;100274.03;;;8.07;85.03
84267;BME280;74414;51.098;13.716;2024-02-15T01:22:37;100274.03;;;8.07;84.83
84267;BME280;74414;51.098;13.716;2024-02-15T01:25:02;100268.88;;;8.06;84.97
84267;BME280;74414;51.098;13.716;2024-02-15T01:27:28;100268.88;;;8.06;85.06
84267;BME280;74414;51.098;13.716;2024-02-15T01:29:56;100268.53;;;8.07;85.15
84267;BME280;74414;51.098;13.716;2024-02-15T01:32:22;100257.84;;;8.06;84.78
84267;BME280;74414;51.098;13.716;2024-02-15T01:34:47;100266.91;;;8.06;84.82
84267;BME280;74414;51.098;13.716;2024-02-15T01:37:13;100263.00;;;8.07;84.92
84267;BME280;74414;51.098;13.716;2024-02-15T01:39:39;100262.19;;;8.07;85.07
84267;BME280;74414;51.098;13.716;2024-02-15T01:42:05;100264.50;;;8.05;85.23
84267;BME280;74414;51.098;13.716;2024-02-15T01:44:31;100261.50;;;8.10;85.35
84267;BME280;74414;51.098;13.716;2024-02-15T01:46:57;100262.78;;;8.12;85.53
84267;BME280;74414;51.098;13.716;2024-02-15T01:49:23;100265.19;;;8.14;85.57
84267;BME280;74414;51.098;13.716;2024-02-15T01:51:50;100256.13;;;8.13;85.59
84267;BME280;74414;51.098;13.716;2024-02-15T01:54:17;100264.03;;;8.15;85.65
84267;BME280;74414;51.098;13.716;2024-02-15T01:56:44;100255.41;;;8.16;85.66
84267;BME280;74414;51.098;13.716;2024-02-15T01:59:11;100259.09;;;8.20;85.17
84267;BME280;74414;51.098;13.716;2024-02-15T02:01:38;100257.28;;;8.24;85.01
84267;BME280;74414;51.098;13.716;2024-02-15T02:04:04;100251.78;;;8.24;85.36
84267;BME280;74414;51.098;13.716;2024-02-15T02:06:30;100261.66;;;8.25;85.16
84267;BME280;74414;51.098;13.716;2024-02-15T02:08:56;100259.69;;;8.26;85.31
84267;BME280;74414;51.098;13.716;2024-02-15T02:11:22;100255.00;;;8.27;85.47
84267;BME280;74414;51.098;13.716;2024-02-15T02:13:48;100250.75;;;8.29;85.73
84267;BME280;74414;51.098;13.716;2024-02-15T02:16:28;100256.03;;;8.34;85.07
84267;BME280;74414;51.098;13.716;2024-02-15T02:18:55;100250.50;;;8.34;85.02
84267;BME280;74414;51.098;13.716;2024-02-15T02:21:21;100251.31;;;8.35;84.93
84267;BME280;74414;51.098;13.716;2024-02-15T02:23:52;100250.81;;;8.45;85.19
84267;BME280;74414;51.098;13.716;2024-02-15T02:26:20;100247.50;;;8.39;84.97
84267;BME280;74414;51.098;13.716;2024-02-15T02:28:47;100252.56;;;8.37;84.80
84267;BME280;74414;51.098;13.716;2024-02-15T02:31:12;100247.84;;;8.38;85.36
84267;BME280;74414;51.098;13.716;2024-02-15T02:33:38;100249.78;;;8.37;85.30
84267;BME280;74414;51.098;13.716;2024-02-15T02:36:04;100246.72;;;8.39;85.23
84267;BME280;74414;51.098;13.716;2024-02-15T02:38:35;100243.72;;;8.44;84.95
84267;BME280;74414;51.098;13.716;2024-02-15T02:41:04;100251.72;;;8.49;85.06
84267;BME280;74414;51.098;13.716;2024-02-15T02:43:30;100253.81;;;8.52;85.08
84267;BME280;74414;51.098;13.716;2024-02-15T02:45:55;100255.88;;;8.55;84.74
84267;BME280;74414;51.098;13.716;2024-02-15T02:48:21;100251.88;;;8.52;84.77
84267;BME280;74414;51.098;13.716;2024-02-15T02:50:48;100248.97;;;8.49;84.72
84267;BME280;74414;51.098;13.716;2024-02-15T02:53:13;100248.50;;;8.47;84.64
84267;BME280;74414;51.098;13.716;2024-02-15T02:55:43;100250.81;;;8.45;84.82
84267;BME280;74414;51.098;13.716;2024-02-15T02:58:08;100248.88;;;8.45;84.85
84267;BME280;74414;51.098;13.716;2024-02-15T03:00:34;100248.97;;;8.49;84.95
84267;BME280;74414;51.098;13.716;2024-02-15T03:03:00;100245.09;;;8.50;84.89
84267;BME280;74414;51.098;13.716;2024-02-15T03:05:26;100243.34;;;8.57;85.30
84267;BME280;74414;51.098;13.716;2024-02-15T03:07:52;100248.50;;;8.59;85.13
84267;BME280;74414;51.098;13.716;2024-02-15T03:10:17;100251.72;;;8.61;85.02
84267;BME280;74414;51.098;13.716;2024-02-15T03:12:44;100245.53;;;8.64;84.80
84267;BME280;74414;51.098;13.716;2024-02-15T03:15:13;100241.13;;;8.63;84.39
84267;BME280;74414;51.098;13.716;2024-02-15T03:17:40;100246.66;;;8.63;84.48
84267;BME280;74414;51.098;13.716;2024-02-15T03:20:07;100242.63;;;8.60;84.68
84267;BME280;74414;51.098;13.716;2024-02-15T03:22:37;100241.13;;;8.63;84.87
84267;BME280;74414;51.098;13.716;2024-02-15T03:25:04;100229.25;;;8.74;84.90
84267;BME280;74414;51.098;13.716;2024-02-15T03:27:33;100237.91;;;8.73;84.68
84267;BME280;74414;51.098;13.716;2024-02-15T03:29:59;100238.13;;;8.68;84.67
84267;BME280;74414;51.098;13.716;2024-02-15T03:32:25;100236.06;;;8.65;84.95
84267;BME280;74414;51.098;13.716;2024-02-15T03:34:51;100235.63;;;8.63;85.09
84267;BME280;74414;51.098;13.716;2024-02-15T03:37:16;100230.56;;;8.65;85.42
84267;BME280;74414;51.098;13.716;2024-02-15T03:39:43;100224.09;;;8.73;85.10
84267;BME280;74414;51.098;13.716;2024-02-15T03:42:09;100230.63;;;8.80;84.68
84267;BME280;74414;51.098;13.716;2024-02-15T03:44:35;100228.22;;;8.79;84.55
84267;BME280;74414;51.098;13.716;2024-02-15T03:47:00;100234.19;;;8.81;84.92
84267;BME280;74414;51.098;13.716;2024-02-15T03:49:26;100232.81;;;8.87;84.82
84267;BME280;74414;51.098;13.716;2024-02-15T03:51:51;100231.63;;;8.88;83.88
84267;BME280;74414;51.098;13.716;2024-02-15T03:54:17;100231.38;;;8.93;83.79
84267;BME280;74414;51.098;13.716;2024-02-15T03:56:47;100234.00;;;9.01;83.90
84267;BME280;74414;51.098;13.716;2024-02-15T03:59:12;100238.63;;;8.97;83.92
84267;BME280;74414;51.098;13.716;2024-02-15T04:01:38;100244.72;;;8.91;84.08
84267;BME280;74414;51.098;13.716;2024-02-15T04:04:04;100243.84;;;8.87;84.28
84267;BME280;74414;51.098;13.716;2024-02-15T04:06:30;100233.94;;;8.86;84.09
84267;BME280;74414;51.098;13.716;2024-02-15T04:08:58;100246.72;;;8.90;84.06
84267;BME280;74414;51.098;13.716;2024-02-15T04:11:23;100249.94;;;8.92;84.29
84267;BME280;74414;51.098;13.716;2024-02-15T04:13:49;100252.31;;;8.94;84.30
84267;BME280;74414;51.098;13.716;2024-02-15T04:16:14;100245.09;;;8.89;83.82
84267;BME280;74414;51.098;13.716;2024-02-15T04:18:39;100252.13;;;8.87;83.87
84267;BME280;74414;51.098;13.716;2024-02-15T04:21:07;100258.44;;;8.87;84.08
84267;BME280;74414;51.098;13.716;2024-02-15T04:23:33;100251.06;;;8.91;84.32
84267;BME280;74414;51.098;13.716;2024-02-15T04:25:59;100246.81;;;8.94;84.12
84267;BME280;74414;51.098;13.716;2024-02-15T04:28:25;100248.41;;;8.95;84.03
84267;BME280;74414;51.098;13.716;2024-02-15T04:30:50;100248.53;;;8.98;83.96
84267;BME280;74414;51.098;13.716;2024-02-15T04:33:15;100247.91;;;9.05;83.61
84267;BME280;74414;51.098;13.716;2024-02-15T04:35:41;100249.06;;;9.04;83.58
84267;BME280;74414;51.098;13.716;2024-02-15T04:38:07;100251.47;;;9.05;83.64
84267;BME280;74414;51.098;13.716;2024-02-15T04:40:33;100248.00;;;9.08;83.39
84267;BME280;74414;51.098;13.716;2024-02-15T04:42:59;100238.72;;;9.01;83.51
84267;BME280;74414;51.098;13.716;2024-02-15T04:45:24;100249.06;;;9.04;83.88
84267;BME280;74414;51.098;13.716;2024-02-15T04:47:51;100251.13;;;9.07;84.08
84267;BME280;74414;51.098;13.716;2024-02-15T04:50:17;100251.94;;;9.07;83.45
84267;BME280;74414;51.098;13.716;2024-02-15T04:52:43;100252.28;;;9.06;83.36
84267;BME280;74414;51.098;13.716;2024-02-15T04:55:11;100247.91;;;9.05;83.36
84267;BME280;74414;51.098;13.716;2024-02-15T04:57:36;100262.53;;;9.05;83.44
84267;BME280;74414;51.098;13.716;2024-02-15T05:00:03;100250.31;;;9.06;83.37
84267;BME280;74414;51.098;13.716;2024-02-15T05:02:34;100261.28;;;9.03;83.69
84267;BME280;74414;51.098;13.716;2024-02-15T05:05:06;100262.44;;;9.02;83.59
84267;BME280;74414;51.098;13.716;2024-02-15T05:07:33;100267.25;;;9.05;83.60
84267;BME280;74414;51.098;13.716;2024-02-15T05:09:59;100266.34;;;9.01;83.48
84267;BME280;74414;51.098;13.716;2024-02-15T05:12:24;100254.69;;;9.07;83.33
84267;BME280;74414;51.098;13.716;2024-02-15T05:14:50;100266.09;;;9.06;82.95
84267;BME280;74414;51.098;13.716;2024-02-15T05:17:16;100258.28;;;9.08;83.26
84267;BME280;74414;51.098;13.716;2024-02-15T05:19:42;100266.56;;;9.08;83.21
84267;BME280;74414;51.098;13.716;2024-02-15T05:22:07;100267.34;;;9.08;83.19
84267;BME280;74414;51.098;13.716;2024-02-15T05:24:33;100276.91;;;9.11;83.01
84267;BME280;74414;51.098;13.716;2024-02-15T05:26:58;100271.00;;;9.12;83.26
84267;BME280;74414;51.098;13.716;2024-02-15T05:29:23;100278.75;;;9.07;82.98
84267;BME280;74414;51.098;13.716;2024-02-15T05:31:48;100276.44;;;9.09;83.04
84267;BME280;74414;51.098;13.716;2024-02-15T05:34:17;100274.22;;;9.14;82.89
84267;BME280;74414;51.098;13.716;2024-02-15T05:36:42;100265.94;;;9.14;83.01
84267;BME280;74414;51.098;13.716;2024-02-15T05:39:07;100268.16;;;9.09;83.07
84267;BME280;74414;51.098;13.716;2024-02-15T05:41:33;100266.56;;;9.08;83.37
84267;BME280;74414;51.098;13.716;2024-02-15T05:43:59;100269.56;;;9.03;83.75
84267;BME280;74414;51.098;13.716;2024-02-15T05:46:25;100276.94;;;8.99;83.80
84267;BME280;74414;51.098;13.716;2024-02-15T05:48:53;100279.13;;;8.93;84.22
84267;BME280;74414;51.098;13.716;2024-02-15T05:51:18;100278.31;;;8.93;84.43
84267;BME280;74414;51.098;13.716;2024-02-15T05:53:44;100279.50;;;8.92;84.71
84267;BME280;74414;51.098;13.716;2024-02-15T05:56:09;100282.34;;;8.95;85.06
84267;BME280;74414;51.098;13.716;2024-02-15T05:58:36;100282.25;;;8.92;85.14
84267;BME280;74414;51.098;13.716;2024-02-15T06:01:03;100284.75;;;8.97;85.37
84267;BME280;74414;51.098;13.716;2024-02-15T06:03:32;100292.59;;;8.95;85.45
84267;BME280;74414;51.098;13.716;2024-02-15T06:05:59;100290.28;;;8.97;85.70
84267;BME280;74414;51.098;13.716;2024-02-15T06:08:27;100292.59;;;8.95;86.00
84267;BME280;74414;51.098;13.716;2024-02-15T06:10:55;100298.13;;;8.95;86.21
84267;BME280;74414;51.098;13.716;2024-02-15T06:13:21;100301.59;;;8.92;86.25
84267;BME280;74414;51.098;13.716;2024-02-15T06:15:47;100306.66;;;8.90;86.66
84267;BME280;74414;51.098;13.716;2024-02-15T06:18:20;100313.91;;;8.94;87.00
84267;BME280;74414;51.098;13.716;2024-02-15T06:20:49;100316.09;;;8.89;87.24
84267;BME280;74414;51.098;13.716;2024-02-15T06:23:19;100314.59;;;8.91;87.46
84267;BME280;74414;51.098;13.716;2024-02-15T06:25:46;100305.50;;;8.91;87.53
84267;BME280;74414;51.098;13.716;2024-02-15T06:28:13;100319.75;;;8.93;87.63
84267;BME280;74414;51.098;13.716;2024-02-15T06:30:45;100318.16;;;8.92;87.92
84267;BME280;74414;51.098;13.716;2024-02-15T06:33:30;100329.22;;;8.92;87.99
84267;BME280;74414;51.098;13.716;2024-02-15T06:36:14;100315.75;;;8.90;88.11
84267;BME280;74414;51.098;13.716;2024-02-15T06:38:58;100315.28;;;8.88;88.19
84267;BME280;74414;51.098;13.716;2024-02-15T06:41:42;100319.28;;;8.91;88.24
84267;BME280;74414;51.098;13.716;2024-02-15T06:44:07;100325.72;;;8.95;88.34
84267;BME280;74414;51.098;13.716;2024-02-15T06:46:33;100329.75;;;8.97;88.29
84267;BME280;74414;51.098;13.716;2024-02-15T06:48:58;100329.88;;;9.01;88.47
84267;BME280;74414;51.098;13.716;2024-02-15T06:51:24;100316.50;;;9.03;88.59
84267;BME280;74414;51.098;13.716;2024-02-15T06:53:50;100317.44;;;9.07;88.59
84267;BME280;74414;51.098;13.716;2024-02-15T06:56:16;100316.75;;;9.10;88.65
84267;BME280;74414;51.098;13.716;2024-02-15T06:58:41;100318.78;;;9.13;88.73
84267;BME280;74414;51.098;13.716;2024-02-15T07:01:07;100326.50;;;9.20;88.74
84267;BME280;74414;51.098;13.716;2024-02-15T07:03:32;100321.31;;;9.18;88.58
84267;BME280;74414;51.098;13.716;2024-02-15T07:05:58;100323.38;;;9.21;88.70
84267;BME280;74414;51.098;13.716;2024-02-15T07:08:23;100317.34;;;9.31;88.69
84267;BME280;74414;51.098;13.716;2024-02-15T07:10:51;100312.75;;;9.35;88.66
84267;BME280;74414;51.098;13.716;2024-02-15T07:13:17;100312.75;;;9.35;88.45
84267;BME280;74414;51.098;13.716;2024-02-15T07:15:44;100319.16;;;9.39;88.18
84267;BME280;74414;51.098;13.716;2024-02-15T07:18:12;100315.25;;;9.40;87.94
84267;BME280;74414;51.098;13.716;2024-02-15T07:20:37;100321.13;;;9.39;87.46
84267;BME280;74414;51.098;13.716;2024-02-15T07:23:05;100316.84;;;9.41;87.46
84267;BME280;74414;51.098;13.716;2024-02-15T07:25:30;100298.41;;;9.45;87.48
84267;BME280;74414;51.098;13.716;2024-02-15T07:27:56;100311.53;;;9.48;87.15
84267;BME280;74414;51.098;13.716;2024-02-15T07:30:22;100310.72;;;9.48;87.04
84267;BME280;74414;51.098;13.716;2024-02-15T07:32:49;100311.44;;;9.45;86.83
84267;BME280;74414;51.098;13.716;2024-02-15T07:35:15;100315.44;;;9.47;87.22
84267;BME280;74414;51.098;13.716;2024-02-15T07:37:52;100311.63;;;9.52;87.03
84267;BME280;74414;51.098;13.716;2024-02-15T07:40:21;100328.31;;;9.55;86.85
84267;BME280;74414;51.098;13.716;2024-02-15T07:42:48;100325.50;;;9.67;86.65
84267;BME280;74414;51.098;13.716;2024-02-15T07:45:14;100325.66;;;9.74;86.08
84267;BME280;74414;51.098;13.716;2024-02-15T07:47:40;100331.84;;;9.83;85.95
84267;BME280;74414;51.098;13.716;2024-02-15T07:50:05;100324.25;;;9.80;85.97
84267;BME280;74414;51.098;13.716;2024-02-15T07:52:31;100340.41;;;9.78;85.74
84267;BME280;74414;51.098;13.716;2024-02-15T07:54:58;100334.88;;;9.78;85.78
84267;BME280;74414;51.098;13.716;2024-02-15T07:57:23;100334.69;;;9.71;85.54
84267;BME280;74414;51.098;13.716;2024-02-15T07:59:49;100326.63;;;9.66;85.78
84267;BME280;74414;51.098;13.716;2024-02-15T08:02:15;100326.31;;;9.68;86.08
84267;BME280;74414;51.098;13.716;2024-02-15T08:04:47;100323.97;;;9.70;86.15
84267;BME280;74414;51.098;13.716;2024-02-15T08:07:13;100324.72;;;9.82;85.95
84267;BME280;74414;51.098;13.716;2024-02-15T08:09:39;100325.88;;;9.97;85.79
84267;BME280;74414;51.098;13.716;2024-02-15T08:12:05;100320.00;;;9.98;85.67
84267;BME280;74414;51.098;13.716;2024-02-15T08:14:30;100315.81;;;10.04;85.52
84267;BME280;74414;51.098;13.716;2024-02-15T08:16:56;100314.31;;;10.23;85.39
84267;BME280;74414;51.098;13.716;2024-02-15T08:19:21;100305.13;;;10.34;85.07
84267;BME280;74414;51.098;13.716;2024-02-15T08:21:48;100301.91;;;10.48;84.64
84267;BME280;74414;51.098;13.716;2024-02-15T08:24:16;100297.31;;;10.55;83.85
84267;BME280;74414;51.098;13.716;2024-02-15T08:26:42;100297.19;;;10.83;83.00
84267;BME280;74414;51.098;13.716;2024-02-15T08:29:08;100297.72;;;11.46;81.23
84267;BME280;74414;51.098;13.716;2024-02-15T08:31:40;100291.16;;;13.56;77.33
84267;BME280;74414;51.098;13.716;2024-02-15T08:34:06;100306.81;;;16.41;67.38
84267;BME280;74414;51.098;13.716;2024-02-15T08:36:35;100313.63;;;16.75;61.40
84267;BME280;74414;51.098;13.716;2024-02-15T08:39:00;100314.41;;;16.23;62.10
84267;BME280;74414;51.098;13.716;2024-02-15T08:41:26;100324.25;;;17.44;59.80
84267;BME280;74414;51.098;13.716;2024-02-15T08:43:52;100329.84;;;18.23;57.19
84267;BME280;74414;51.098;13.716;2024-02-15T08:46:19;100322.03;;;16.75;61.00
84267;BME280;74414;51.098;13.716;2024-02-15T08:48:47;100318.75;;;16.06;62.16
84267;BME280;74414;51.098;13.716;2024-02-15T08:51:12;100329.59;;;16.89;60.76
84267;BME280;74414;51.098;13.716;2024-02-15T08:53:38;100330.81;;;16.63;60.63
84267;BME280;74414;51.098;13.716;2024-02-15T08:56:04;100320.78;;;16.20;61.64
84267;BME280;74414;51.098;13.716;2024-02-15T08:58:30;100326.19;;;15.46;63.74
84267;BME280;74414;51.098;13.716;2024-02-15T09:00:56;100313.16;;;14.48;66.18
84267;BME280;74414;51.098;13.716;2024-02-15T09:03:22;100317.63;;;14.13;68.15
84267;BME280;74414;51.098;13.716;2024-02-15T09:05:47;100317.03;;;13.93;69.57
84267;BME280;74414;51.098;13.716;2024-02-15T09:08:13;100314.06;;;14.19;68.81
84267;BME280;74414;51.098;13.716;2024-02-15T09:10:39;100324.44;;;14.19;69.46
84267;BME280;74414;51.098;13.716;2024-02-15T09:13:05;100328.22;;;14.40;68.70
84267;BME280;74414;51.098;13.716;2024-02-15T09:15:32;100327.84;;;15.72;65.74
84267;BME280;74414;51.098;13.716;2024-02-15T09:17:57;100333.97;;;16.33;62.22
84267;BME280;74414;51.098;13.716;2024-02-15T09:20:23;100337.44;;;15.78;62.45
84267;BME280;74414;51.098;13.716;2024-02-15T09:22:54;100325.38;;;14.81;65.79
84267;BME280;74414;51.098;13.716;2024-02-15T09:25:22;100320.31;;;14.06;68.13
84267;BME280;74414;51.098;13.716;2024-02-15T09:27:51;100318.66;;;13.61;69.86
84267;BME280;74414;51.098;13.716;2024-02-15T09:30:17;100313.31;;;13.45;71.08
84267;BME280;74414;51.098;13.716;2024-02-15T09:32:43;100318.91;;;13.49;72.03
84267;BME280;74414;51.098;13.716;2024-02-15T09:35:11;100320.19;;;13.25;72.11
84267;BME280;74414;51.098;13.716;2024-02-15T09:37:45;100319.91;;;13.04;73.13
84267;BME280;74414;51.098;13.716;2024-02-15T09:40:12;100323.00;;;12.73;73.85
84267;BME280;74414;51.098;13.716;2024-02-15T09:42:38;100328.34;;;12.59;74.24
84267;BME280;74414;51.098;13.716;2024-02-15T09:45:05;100323.66;;;12.40;74.75
84267;BME280;74414;51.098;13.716;2024-02-15T09:47:35;100326.56;;;12.47;75.41
84267;BME280;74414;51.098;13.716;2024-02-15T09:50:02;100324.66;;;12.51;75.15
84267;BME280;74414;51.098;13.716;2024-02-15T09:52:29;100330.25;;;12.55;75.57
84267;BME280;74414;51.098;13.716;2024-02-15T09:54:57;100330.25;;;12.55;75.07
84267;BME280;74414;51.098;13.716;2024-02-15T09:57:23;100326.63;;;12.51;75.35
84267;BME280;74414;51.098;13.716;2024-02-15T09:59:49;100328.34;;;12.59;75.06
84267;BME280;74414;51.098;13.716;2024-02-15T10:02:15;100324.47;;;12.67;75.40
84267;BME280;74414;51.098;13.716;2024-02-15T10:04:41;100332.09;;;12.70;75.07
84267;BME280;74414;51.098;13.716;2024-02-15T10:07:07;100331.66;;;12.68;75.53
84267;BME280;74414;51.098;13.716;2024-02-15T10:09:35;100326.91;;;12.68;75.45
84267;BME280;74414;51.098;13.716;2024-02-15T10:12:08;100322.22;;;12.72;75.12
84267;BME280;74414;51.098;13.716;2024-02-15T10:14:34;100316.56;;;12.69;74.37
84267;BME280;74414;51.098;13.716;2024-02-15T10:17:06;100321.41;;;12.72;75.12
84267;BME280;74414;51.098;13.716;2024-02-15T10:19:36;100322.03;;;12.88;74.66
84267;BME280;74414;51.098;13.716;2024-02-15T10:22:08;100323.31;;;12.94;74.15
84267;BME280;74414;51.098;13.716;2024-02-15T10:24:34;100323.03;;;13.03;73.88
84267;BME280;74414;51.098;13.716;2024-02-15T10:27:04;100318.38;;;13.07;74.18
84267;BME280;74414;51.098;13.716;2024-02-15T10:29:31;100327.78;;;13.02;74.21
84267;BME280;74414;51.098;13.716;2024-02-15T10:31:58;100321.66;;;12.90;73.94
84267;BME280;74414;51.098;13.716;2024-02-15T10:34:28;100323.47;;;12.78;73.80
84267;BME280;74414;51.098;13.716;2024-02-15T10:36:54;100321.13;;;12.80;74.94
84267;BME280;74414;51.098;13.716;2024-02-15T10:39:21;100326.00;;;12.87;74.46
84267;BME280;74414;51.098;13.716;2024-02-15T10:41:52;100312.94;;;12.91;74.50
84267;BME280;74414;51.098;13.716;2024-02-15T10:44:23;100316.28;;;12.74;73.72
84267;BME280;74414;51.098;13.716;2024-02-15T10:46:51;100310.66;;;12.70;74.36
84267;BME280;74414;51.098;13.716;2024-02-15T10:49:18;100311.78;;;12.66;74.53
84267;BME280;74414;51.098;13.716;2024-02-15T10:51:44;100310.59;;;12.67;74.25
84267;BME280;74414;51.098;13.716;2024-02-15T10:54:16;100314.06;;;12.60;74.52
84267;BME280;74414;51.098;13.716;2024-02-15T10:56:45;100299.22;;;12.49;74.58
84267;BME280;74414;51.098;13.716;2024-02-15T10:59:19;100301.38;;;12.37;75.04
84267;BME280;74414;51.098;13.716;2024-02-15T11:01:49;100307.31;;;12.35;75.18
84267;BME280;74414;51.098;13.716;2024-02-15T11:04:20;100299.81;;;12.36;75.72
84267;BME280;74414;51.098;13.716;2024-02-15T11:06:47;100290.28;;;12.37;75.49
84267;BME280;74414;51.098;13.716;2024-02-15T11:09:15;100297.44;;;12.38;74.91
84267;BME280;74414;51.098;13.716;2024-02-15T11:11:41;100293.97;;;12.44;74.93
84267;BME280;74414;51.098;13.716;2024-02-15T11:14:26;100294.19;;;12.58;75.02
84267;BME280;74414;51.098;13.716;2024-02-15T11:16:52;100301.94;;;12.72;74.00
84267;BME280;74414;51.098;13.716;2024-02-15T11:19:44;100293.28;;;12.77;74.06
84267;BME280;74414;51.098;13.716;2024-02-15T11:22:13;100292.63;;;12.87;74.04
84267;BME280;74414;51.098;13.716;2024-02-15T11:24:51;100294.13;;;12.81;74.02
84267;BME280;74414;51.098;13.716;2024-02-15T11:27:30;100295.47;;;12.91;74.12
84267;BME280;74414;51.098;13.716;2024-02-15T11:37:50;100286.09;;;13.02;72.95
84267;BME280;74414;51.098;13.716;2024-02-15T11:40:23;100280.72;;;13.13;72.69
84267;BME280;74414;51.098;13.716;2024-02-15T11:42:56;100275.00;;;13.32;73.08
84267;BME280;74414;51.098;13.716;2024-02-15T11:45:25;100265.34;;;13.55;71.60
84267;BME280;74414;51.098;13.716;2024-02-15T11:47:53;100269.78;;;13.63;71.04
84267;BME280;74414;51.098;13.716;2024-02-15T11:50:20;100264.06;;;13.49;71.91
84267;BME280;74414;51.098;13.716;2024-02-15T11:52:50;100260.47;;;13.49;72.58
84267;BME280;74414;51.098;13.716;2024-02-15T11:55:22;100276.13;;;13.60;71.27
84267;BME280;74414;51.098;13.716;2024-02-15T11:57:58;100271.84;;;13.70;71.71
84267;BME280;74414;51.098;13.716;2024-02-15T12:00:36;100265.88;;;13.72;70.48
84267;BME280;74414;51.098;13.716;2024-02-15T12:03:21;100265.72;;;13.57;71.28
84267;BME280;74414;51.098;13.716;2024-02-15T12:06:05;100262.34;;;13.38;71.33
84267;BME280;74414;51.098;13.716;2024-02-15T12:08:50;100266.34;;;13.40;71.86
84267;BME280;74414;51.098;13.716;2024-02-15T12:11:35;100259.28;;;13.50;71.10
84267;BME280;74414;51.098;13.716;2024-02-15T12:14:19;100266.00;;;13.45;70.92
84267;BME280;74414;51.098;13.716;2024-02-15T12:17:10;100257.66;;;13.45;71.56
84267;BME280;74414;51.098;13.716;2024-02-15T12:19:56;100255.78;;;13.56;71.61
84267;BME280;74414;51.098;13.716;2024-02-15T12:22:30;100253.03;;;13.23;71.52
84267;BME280;74414;51.098;13.716;2024-02-15T12:24:57;100260.28;;;13.31;72.21
84267;BME280;74414;51.098;13.716;2024-02-15T12:27:24;100258.09;;;13.47;72.06
84267;BME280;74414;51.098;13.716;2024-02-15T12:29:59;100257.06;;;13.62;71.94
84267;BME280;74414;51.098;13.716;2024-02-15T12:32:26;100249.22;;;13.75;70.88
84267;BME280;74414;51.098;13.716;2024-02-15T12:35:10;100243.72;;;13.79;70.65
84267;BME280;74414;51.098;13.716;2024-02-15T12:37:41;100239.47;;;13.95;69.91
84267;BME280;74414;51.098;13.716;2024-02-15T12:40:17;100243.97;;;14.10;69.47
84267;BME280;74414;51.098;13.716;2024-02-15T12:42:43;100237.69;;;14.20;68.48
84267;BME280;74414;51.098;13.716;2024-02-15T12:45:20;100240.25;;;14.36;68.49
84267;BME280;74414;51.098;13.716;2024-02-15T12:47:53;100244.63;;;14.37;68.73
84267;BME280;74414;51.098;13.716;2024-02-15T12:50:20;100241.00;;;14.33;68.74
84267;BME280;74414;51.098;13.716;2024-02-15T12:52:47;100241.00;;;14.33;69.15
84267;BME280;74414;51.098;13.716;2024-02-15T12:55:16;100237.03;;;14.30;68.27
84267;BME280;74414;51.098;13.716;2024-02-15T12:57:44;100241.94;;;14.04;68.88